Time;durP1;ratioP1;P1;durP2;ratioP2;P2;SDS_P1;SDS_P2;PMS_P1;PMS_P2;Temp;Humidity;BMP_temperature;BMP_pressure;BME280_temperature;BME280_humidity;BME280_pressure;Samples;Min_cycle;Max_cycle;Signal;HPM_P1;HPM_P2
2024/01/05 00:01:56;;;;;;;2.85;1.52;;;4.50;63.60;;;;;;5033807;28;20227;-80
2024/01/05 00:04:24;;;;;;;5.07;3.10;;;4.50;63.30;;;;;;5034362;28;20195;-81
2024/01/05 00:06:51;;;;;;;2.58;1.42;;;4.40;63.40;;;;;;5033496;28;20716;-82
2024/01/05 00:09:19;;;;;;;3.22;1.27;;;4.50;63.50;;;;;;5033317;28;20223;-82
2024/01/05 00:11:49;;;;;;;3.90;1.80;;;4.40;63.40;;;;;;5033690;28;20194;-81
2024/01/05 00:14:18;;;;;;;5.13;1.70;;;4.40;63.50;;;;;;5033884;28;20192;-81
2024/01/05 00:16:46;;;;;;;5.38;3.22;;;4.40;63.20;;;;;;5033717;28;20198;-81
2024/01/05 00:19:16;;;;;;;4.65;1.80;;;4.30;63.40;;;;;;5034022;28;20217;-81
2024/01/05 00:21:47;;;;;;;4.38;1.85;;;4.40;63.80;;;;;;5033507;28;20195;-81
2024/01/05 00:24:14;;;;;;;4.85;2.05;;;4.30;63.60;;;;;;5033235;28;20294;-81
2024/01/05 00:26:43;;;;;;;4.63;1.80;;;4.20;63.70;;;;;;5022323;28;20188;-83
2024/01/05 00:29:11;;;;;;;4.03;1.95;;;4.20;64.40;;;;;;5033346;28;20219;-79
2024/01/05 00:31:39;;;;;;;4.25;2.10;;;4.20;64.90;;;;;;5033504;28;20709;-81
2024/01/05 00:34:08;;;;;;;2.70;1.70;;;4.20;64.90;;;;;;5033483;28;20235;-83
2024/01/05 00:36:37;;;;;;;5.95;3.17;;;4.10;64.10;;;;;;5033132;28;20279;-83
2024/01/05 00:39:04;;;;;;;4.15;2.15;;;4.10;63.50;;;;;;5031842;28;20286;-82
2024/01/05 00:41:32;;;;;;;6.78;2.63;;;4.00;63.60;;;;;;5033439;28;20677;-83
2024/01/05 00:44:00;;;;;;;4.50;2.50;;;3.90;64.40;;;;;;5032936;28;20195;-82
2024/01/05 00:46:28;;;;;;;6.32;3.10;;;3.90;65.40;;;;;;5032931;28;20219;-82
2024/01/05 00:48:55;;;;;;;11.02;4.82;;;4.00;65.40;;;;;;5033677;28;20214;-81
2024/01/05 00:51:22;;;;;;;6.60;3.53;;;4.00;65.00;;;;;;5033571;28;20242;-81
2024/01/05 00:53:51;;;;;;;7.00;2.80;;;3.90;64.60;;;;;;5033347;28;20195;-84
2024/01/05 00:56:19;;;;;;;4.38;2.38;;;3.80;64.40;;;;;;5032845;28;20650;-83
2024/01/05 00:58:46;;;;;;;7.30;4.00;;;3.80;64.70;;;;;;5033275;28;20195;-81
2024/01/05 01:01:16;;;;;;;6.75;3.95;;;3.80;64.50;;;;;;5033122;28;20199;-81
2024/01/05 01:03:43;;;;;;;7.55;3.50;;;3.70;64.60;;;;;;5032720;28;20191;-81
2024/01/05 01:06:11;;;;;;;8.68;4.00;;;3.60;65.00;;;;;;5032891;28;20191;-81
2024/01/05 01:08:38;;;;;;;8.07;4.13;;;3.60;65.50;;;;;;5033054;28;20195;-81
2024/01/05 01:11:05;;;;;;;7.35;4.75;;;3.50;65.70;;;;;;5033294;28;20199;-81
2024/01/05 01:13:33;;;;;;;7.68;4.47;;;3.50;66.20;;;;;;5033273;28;20536;-81
2024/01/05 01:16:00;;;;;;;7.65;4.47;;;3.50;66.10;;;;;;5032473;28;20194;-81
2024/01/05 01:18:28;;;;;;;9.00;4.45;;;3.50;66.10;;;;;;5033416;28;20265;-81
2024/01/05 01:20:56;;;;;;;8.88;4.07;;;3.50;66.00;;;;;;5032848;28;20199;-81
2024/01/05 01:23:23;;;;;;;9.13;4.43;;;3.40;65.90;;;;;;5032803;28;20270;-81
2024/01/05 01:25:50;;;;;;;9.02;3.78;;;3.30;66.10;;;;;;5033020;28;20187;-81
2024/01/05 01:28:18;;;;;;;8.25;4.50;;;3.30;66.40;;;;;;5033049;28;20241;-81
2024/01/05 01:30:45;;;;;;;6.07;3.53;;;3.30;66.90;;;;;;5032731;28;20228;-81
2024/01/05 01:33:12;;;;;;;6.57;3.55;;;3.30;67.40;;;;;;5032700;28;20197;-81
2024/01/05 01:35:41;;;;;;;9.00;4.75;;;3.30;66.90;;;;;;5032487;28;20187;-81
2024/01/05 01:38:08;;;;;;;10.45;4.80;;;3.30;66.40;;;;;;5031690;28;20188;-80
2024/01/05 01:40:35;;;;;;;7.25;4.05;;;3.30;66.10;;;;;;5032572;28;20434;-81
2024/01/05 01:43:03;;;;;;;6.70;3.20;;;3.20;66.00;;;;;;5033080;28;20552;-81
2024/01/05 01:45:31;;;;;;;6.97;3.72;;;3.20;66.30;;;;;;5032309;28;20179;-81
2024/01/05 01:47:58;;;;;;;5.40;2.67;;;3.20;66.80;;;;;;5033048;28;20525;-81
2024/01/05 01:50:26;;;;;;;5.40;3.08;;;3.20;67.10;;;;;;5032819;28;20265;-81
2024/01/05 01:52:54;;;;;;;6.32;3.75;;;3.20;67.10;;;;;;5032448;28;20279;-80
2024/01/05 01:55:21;;;;;;;6.35;3.67;;;3.10;66.90;;;;;;5032613;28;20188;-81
2024/01/05 01:57:50;;;;;;;7.10;3.83;;;3.10;66.90;;;;;;5035766;28;20202;-81
2024/01/05 02:00:18;;;;;;;5.93;3.20;;;3.10;67.10;;;;;;5036833;28;20250;-81
2024/01/05 02:02:48;;;;;;;5.90;2.65;;;3.10;66.80;;;;;;5036841;28;20200;-81
2024/01/05 02:05:17;;;;;;;7.60;3.78;;;3.10;66.20;;;;;;5036010;28;20195;-82
2024/01/05 02:07:44;;;;;;;8.48;3.30;;;3.10;65.90;;;;;;5036791;28;20226;-81
2024/01/05 02:10:11;;;;;;;5.13;3.15;;;3.00;66.00;;;;;;5036230;28;20226;-82
2024/01/05 02:12:39;;;;;;;7.35;3.70;;;3.00;66.70;;;;;;5036615;28;20194;-81
2024/01/05 02:15:07;;;;;;;6.70;4.40;;;3.00;67.10;;;;;;5035363;28;20200;-82
2024/01/05 02:17:35;;;;;;;6.50;3.75;;;3.00;67.60;;;;;;5036509;28;20264;-81
2024/01/05 02:20:03;;;;;;;6.40;4.00;;;3.00;68.10;;;;;;5036397;28;20501;-81
2024/01/05 02:22:31;;;;;;;5.20;3.30;;;3.00;68.30;;;;;;5036322;28;20238;-81
2024/01/05 02:25:00;;;;;;;5.57;3.15;;;3.00;68.50;;;;;;5035992;28;20199;-80
2024/01/05 02:27:28;;;;;;;5.18;3.20;;;3.00;67.90;;;;;;5035636;28;20192;-80
2024/01/05 02:29:55;;;;;;;5.50;2.08;;;3.00;67.50;;;;;;5036228;28;20261;-80
2024/01/05 02:32:22;;;;;;;3.80;2.00;;;2.90;67.00;;;;;;5034590;28;20192;-80
2024/01/05 02:34:49;;;;;;;4.53;2.60;;;3.00;66.60;;;;;;5034523;28;20642;-80
2024/01/05 02:37:17;;;;;;;5.13;2.40;;;3.00;66.30;;;;;;5036076;28;20282;-80
2024/01/05 02:39:44;;;;;;;4.57;2.13;;;3.00;65.90;;;;;;5035468;28;20203;-80
2024/01/05 02:42:13;;;;;;;4.00;2.65;;;2.90;66.00;;;;;;5035723;28;20190;-80
2024/01/05 02:44:40;;;;;;;4.25;2.28;;;2.80;65.90;;;;;;5036242;28;20242;-80
2024/01/05 02:47:08;;;;;;;4.80;2.67;;;2.80;66.60;;;;;;5035393;28;20223;-80
2024/01/05 02:49:35;;;;;;;3.42;2.10;;;2.70;67.10;;;;;;5035606;28;20222;-80
2024/01/05 02:52:02;;;;;;;4.47;2.45;;;2.70;67.40;;;;;;5035292;28;20650;-80
2024/01/05 02:54:30;;;;;;;5.13;2.22;;;2.70;67.60;;;;;;5035402;28;20242;-80
2024/01/05 02:56:59;;;;;;;5.18;2.47;;;2.70;67.70;;;;;;5035797;28;20554;-80
2024/01/05 02:59:28;;;;;;;6.35;2.63;;;2.70;67.40;;;;;;5034281;28;20187;-80
2024/01/05 03:01:55;;;;;;;4.93;3.03;;;2.70;67.30;;;;;;5035492;28;20215;-79
2024/01/05 03:04:23;;;;;;;4.72;2.63;;;2.70;67.60;;;;;;5035620;28;20290;-80
2024/01/05 03:06:50;;;;;;;4.50;2.10;;;2.80;68.00;;;;;;5034911;28;20654;-80
2024/01/05 03:09:17;;;;;;;3.03;1.52;;;2.80;66.60;;;;;;5035212;28;20203;-79
2024/01/05 03:11:44;;;;;;;2.92;1.33;;;2.80;66.10;;;;;;5034739;28;20200;-81
2024/01/05 03:14:13;;;;;;;3.28;1.95;;;2.80;66.20;;;;;;5035204;28;20199;-83
2024/01/05 03:16:42;;;;;;;3.15;1.42;;;2.70;66.30;;;;;;5035513;28;20275;-80
2024/01/05 03:19:09;;;;;;;3.60;2.08;;;2.70;67.10;;;;;;5035125;28;20194;-81
2024/01/05 03:21:37;;;;;;;3.70;2.20;;;2.70;67.70;;;;;;5034897;28;20202;-80
2024/01/05 03:24:05;;;;;;;4.93;2.85;;;2.70;68.20;;;;;;5034987;28;20195;-80
2024/01/05 03:26:32;;;;;;;4.90;3.40;;;2.80;68.10;;;;;;5035238;28;20202;-80
2024/01/05 03:28:59;;;;;;;6.47;3.58;;;2.80;67.70;;;;;;5034953;28;20195;-80
2024/01/05 03:31:27;;;;;;;5.40;2.90;;;2.80;68.20;;;;;;5034235;28;20299;-81
2024/01/05 03:33:55;;;;;;;5.72;2.67;;;2.80;68.70;;;;;;5035329;28;20253;-80
2024/01/05 03:36:23;;;;;;;4.72;2.40;;;2.80;69.00;;;;;;5034913;28;20202;-80
2024/01/05 03:38:50;;;;;;;3.40;1.83;;;2.90;69.20;;;;;;5034724;28;20295;-81
2024/01/05 03:41:17;;;;;;;4.95;2.38;;;2.90;69.40;;;;;;5034347;28;20282;-81
2024/01/05 03:43:45;;;;;;;4.28;1.85;;;3.00;69.40;;;;;;5033849;28;20183;-82
2024/01/05 03:46:22;;;;;;;4.28;2.05;;;3.00;69.20;;;;;;5034439;28;20259;-81
2024/01/05 03:48:49;;;;;;;4.38;2.35;;;3.10;69.30;;;;;;5034999;28;20197;-81
2024/01/05 03:51:17;;;;;;;4.72;2.25;;;3.10;69.00;;;;;;5033920;28;20681;-81
2024/01/05 03:53:45;;;;;;;4.57;2.15;;;3.10;69.00;;;;;;5033989;28;20190;-81
2024/01/05 03:56:12;;;;;;;5.97;2.58;;;3.10;68.90;;;;;;5034373;28;20219;-81
2024/01/05 03:58:40;;;;;;;4.95;2.63;;;3.10;68.40;;;;;;5034796;28;20212;-81
2024/01/05 04:01:07;;;;;;;4.93;2.10;;;3.10;68.30;;;;;;5033996;28;20310;-82
2024/01/05 04:03:34;;;;;;;4.75;2.08;;;3.10;68.50;;;;;;5033127;28;20197;-81
2024/01/05 04:06:03;;;;;;;3.40;1.90;;;3.10;68.50;;;;;;5034182;28;20711;-83
2024/01/05 04:08:31;;;;;;;4.40;2.30;;;3.10;68.20;;;;;;5034408;28;20198;-81
2024/01/05 04:10:58;;;;;;;7.15;2.90;;;3.20;67.90;;;;;;5033320;28;20555;-81
2024/01/05 04:13:26;;;;;;;6.13;3.58;;;3.10;67.50;;;;;;5033826;28;20197;-81
2024/01/05 04:15:55;;;;;;;6.60;2.90;;;3.00;67.70;;;;;;5033851;28;20187;-81
2024/01/05 04:18:25;;;;;;;5.82;2.70;;;3.00;68.30;;;;;;5033088;28;20643;-82
2024/01/05 04:20:52;;;;;;;6.97;3.30;;;2.90;68.20;;;;;;5033901;28;20206;-81
2024/01/05 04:23:19;;;;;;;4.38;2.25;;;2.90;68.60;;;;;;5033678;28;20627;-81
2024/01/05 04:25:48;;;;;;;3.03;1.83;;;3.00;69.00;;;;;;5033844;28;20222;-81
2024/01/05 04:28:16;;;;;;;6.22;2.47;;;3.00;69.00;;;;;;5034008;28;20218;-81
2024/01/05 04:30:43;;;;;;;5.18;2.50;;;3.00;68.90;;;;;;5033872;28;20215;-81
2024/01/05 04:33:11;;;;;;;3.42;2.10;;;3.00;68.90;;;;;;5033465;28;20219;-81
2024/01/05 04:35:39;;;;;;;5.78;3.10;;;3.00;68.40;;;;;;5033702;28;20191;-81
2024/01/05 04:38:06;;;;;;;5.43;3.10;;;3.00;68.70;;;;;;5033675;28;20222;-80
2024/01/05 04:40:33;;;;;;;4.50;2.35;;;3.00;68.90;;;;;;5033855;28;20223;-82
2024/01/05 04:43:02;;;;;;;6.07;2.40;;;3.00;69.00;;;;;;5033174;28;20194;-81
2024/01/05 04:45:29;;;;;;;3.83;2.00;;;3.10;69.40;;;;;;5033482;28;20642;-81
2024/01/05 04:47:57;;;;;;;3.35;1.63;;;3.10;69.60;;;;;;5033348;28;20273;-81
2024/01/05 04:50:24;;;;;;;4.43;2.28;;;3.10;69.40;;;;;;5033246;28;20212;-82
2024/01/05 04:52:52;;;;;;;6.03;2.70;;;3.10;69.40;;;;;;5033311;28;20188;-81
2024/01/05 04:55:20;;;;;;;6.63;2.45;;;3.10;69.60;;;;;;5033365;28;20641;-81
2024/01/05 04:57:48;;;;;;;6.47;3.03;;;3.10;69.70;;;;;;5033542;28;20274;-81
2024/01/05 05:00:17;;;;;;;5.20;2.65;;;3.10;70.00;;;;;;5033176;28;20229;-81
2024/01/05 05:02:45;;;;;;;5.65;2.35;;;3.20;69.80;;;;;;5032611;28;20270;-81
2024/01/05 05:05:12;;;;;;;4.78;2.25;;;3.20;69.10;;;;;;5033447;28;20199;-81
2024/01/05 05:07:39;;;;;;;3.95;2.42;;;3.20;68.80;;;;;;5033218;28;20219;-83
2024/01/05 05:10:08;;;;;;;4.25;2.78;;;3.20;68.80;;;;;;5032993;28;20546;-81
2024/01/05 05:12:35;;;;;;;4.50;2.08;;;3.20;68.80;;;;;;5032988;28;20188;-81
2024/01/05 05:15:02;;;;;;;5.43;1.95;;;3.10;69.10;;;;;;5033386;28;20523;-81
2024/01/05 05:17:31;;;;;;;6.60;2.40;;;3.10;69.40;;;;;;5032950;28;20669;-82
2024/01/05 05:19:58;;;;;;;6.00;3.33;;;3.20;69.20;;;;;;5033185;28;20198;-81
2024/01/05 05:22:26;;;;;;;8.60;4.45;;;3.20;70.00;;;;;;5032650;28;20287;-82
2024/01/05 05:24:54;;;;;;;7.32;3.30;;;3.10;69.20;;;;;;5032847;28;20198;-81
2024/01/05 05:27:22;;;;;;;6.40;3.40;;;3.10;69.80;;;;;;5032881;28;20372;-81
2024/01/05 05:29:49;;;;;;;10.68;3.85;;;3.10;70.70;;;;;;5033038;28;20191;-81
2024/01/05 05:32:16;;;;;;;7.40;3.13;;;3.10;71.00;;;;;;5032474;28;20207;-80
2024/01/05 05:34:45;;;;;;;4.80;2.97;;;3.20;71.10;;;;;;5032705;28;20191;-80
2024/01/05 05:37:13;;;;;;;6.70;3.25;;;3.20;70.70;;;;;;5033077;28;20202;-79
2024/01/05 05:39:40;;;;;;;6.00;2.63;;;3.30;70.50;;;;;;5032733;28;20191;-80
2024/01/05 05:42:07;;;;;;;4.70;2.47;;;3.20;70.10;;;;;;5032584;28;20261;-80
2024/01/05 05:44:35;;;;;;;4.40;2.20;;;3.30;70.30;;;;;;5032935;28;20202;-80
2024/01/05 05:47:02;;;;;;;5.43;2.30;;;3.30;70.00;;;;;;5032477;28;20335;-80
2024/01/05 05:49:29;;;;;;;3.33;1.73;;;3.20;69.80;;;;;;5032489;28;20191;-80
2024/01/05 05:51:58;;;;;;;4.38;2.22;;;3.20;69.90;;;;;;5032311;28;20236;-81
2024/01/05 05:54:25;;;;;;;8.32;2.45;;;3.30;70.00;;;;;;5032980;28;20196;-81
2024/01/05 05:56:53;;;;;;;6.85;3.30;;;3.20;69.90;;;;;;5032454;28;20646;-81
2024/01/05 05:59:20;;;;;;;4.22;2.35;;;3.30;69.90;;;;;;5032425;28;20237;-81
2024/01/05 06:01:47;;;;;;;3.28;2.15;;;3.30;69.40;;;;;;5032428;28;20192;-80
2024/01/05 06:04:15;;;;;;;6.47;1.38;;;3.30;69.50;;;;;;5031997;28;20184;-81
2024/01/05 06:06:42;;;;;;;3.70;1.70;;;3.30;69.60;;;;;;5032307;28;20584;-81
2024/01/05 06:09:14;;;;;;;3.40;1.75;;;3.30;69.90;;;;;;5032404;28;20623;-81
2024/01/05 06:11:41;;;;;;;3.85;1.50;;;3.40;70.00;;;;;;5032512;28;20606;-81
2024/01/05 06:14:08;;;;;;;2.72;1.30;;;3.40;69.90;;;;;;5031898;28;20635;-81
2024/01/05 06:16:36;;;;;;;3.83;1.73;;;3.40;69.80;;;;;;5032710;28;20275;-81
2024/01/05 06:19:03;;;;;;;4.50;2.40;;;3.40;69.80;;;;;;5032678;28;20230;-81
2024/01/05 06:21:31;;;;;;;6.07;2.95;;;3.40;69.80;;;;;;5032600;28;20200;-81
2024/01/05 06:23:58;;;;;;;4.28;2.35;;;3.50;69.60;;;;;;5031711;28;20195;-81
2024/01/05 06:26:26;;;;;;;3.40;2.42;;;3.40;69.40;;;;;;5032544;28;20195;-81
2024/01/05 06:28:54;;;;;;;6.05;2.63;;;3.40;69.50;;;;;;5032433;28;20195;-81
2024/01/05 06:31:23;;;;;;;6.03;2.95;;;3.40;69.70;;;;;;5031324;28;20225;-82
2024/01/05 06:33:51;;;;;;;4.70;2.67;;;3.40;70.00;;;;;;5031452;28;20188;-81
2024/01/05 06:36:41;;;;;;;5.00;2.40;;;3.50;70.10;;;;;;5032443;28;20624;-82
2024/01/05 06:39:10;;;;;;;5.22;2.58;;;3.50;69.70;;;;;;5015233;28;20208;-84
2024/01/05 06:41:46;;;;;;;8.00;2.97;;;3.50;69.50;;;;;;5028270;28;20202;-83
2024/01/05 06:44:16;;;;;;;4.45;2.22;;;3.50;69.60;;;;;;5034326;28;20179;-81
2024/01/05 06:46:50;;;;;;;3.65;2.15;;;3.50;70.20;;;;;;5027493;28;20269;-83
2024/01/05 06:49:19;;;;;;;3.90;2.17;;;3.60;69.70;;;;;;5025372;28;20300;-82
2024/01/05 06:51:55;;;;;;;3.17;1.52;;;3.60;69.30;;;;;;5014264;28;20900;-87
2024/01/05 06:54:27;;;;;;;3.00;1.63;;;3.70;69.00;;;;;;5025871;28;20723;-83
2024/01/05 06:57:02;;;;;;;4.38;2.10;;;3.70;69.00;;;;;;5034304;28;20539;-83
2024/01/05 06:59:31;;;;;;;3.22;1.70;;;3.70;68.80;;;;;;5034537;28;20195;-84
2024/01/05 07:01:58;;;;;;;3.72;1.95;;;3.70;68.90;;;;;;5034563;28;20195;-83
2024/01/05 07:04:26;;;;;;;3.20;1.42;;;3.70;69.00;;;;;;5021853;28;20290;-83
2024/01/05 07:06:53;;;;;;;2.92;1.38;;;3.80;68.90;;;;;;5014048;28;20279;-83
2024/01/05 07:09:22;;;;;;;3.72;1.70;;;3.80;68.50;;;;;;5026079;28;20654;-82
2024/01/05 07:11:50;;;;;;;5.78;1.80;;;3.80;68.20;;;;;;5023405;28;20215;-83
2024/01/05 07:14:20;;;;;;;3.95;1.75;;;3.80;68.10;;;;;;5033945;28;20529;-82
2024/01/05 07:16:49;;;;;;;3.03;1.60;;;3.80;68.20;;;;;;5034568;28;20549;-82
2024/01/05 07:19:17;;;;;;;8.60;1.90;;;3.90;69.40;;;;;;5034177;28;20282;-82
2024/01/05 07:21:49;;;;;;;4.35;2.63;;;3.80;68.80;;;;;;5035262;28;20222;-82
2024/01/05 07:24:16;;;;;;;4.32;2.58;;;3.90;69.00;;;;;;5034063;28;20259;-83
2024/01/05 07:26:43;;;;;;;4.82;2.30;;;3.90;69.30;;;;;;5034345;28;20188;-85
2024/01/05 07:29:11;;;;;;;5.03;3.15;;;3.90;69.60;;;;;;5034321;28;20192;-84
2024/01/05 07:31:45;;;;;;;4.50;2.70;;;3.90;69.70;;;;;;5033859;28;20246;-84
2024/01/05 07:34:12;;;;;;;4.25;2.55;;;3.90;69.70;;;;;;5033619;28;20219;-85
2024/01/05 07:36:43;;;;;;;21.25;10.00;;;3.90;69.90;;;;;;5034012;28;20195;-85
2024/01/05 07:39:11;;;;;;;12.90;5.32;;;3.90;70.00;;;;;;5033945;28;20241;-85
2024/01/05 07:41:39;;;;;;;13.45;5.10;;;4.00;70.30;;;;;;5033537;28;20206;-86
2024/01/05 07:44:07;;;;;;;9.43;4.75;;;4.00;69.90;;;;;;5033435;28;20266;-85
2024/01/05 07:46:41;;;;;;;7.53;3.85;;;4.00;70.00;;;;;;5033568;28;20223;-85
2024/01/05 07:49:10;;;;;;;9.23;3.53;;;4.00;70.00;;;;;;5034047;28;20202;-85
2024/01/05 07:51:37;;;;;;;5.90;2.90;;;4.10;70.30;;;;;;5033271;28;20587;-84
2024/01/05 07:54:04;;;;;;;4.65;2.85;;;4.10;70.40;;;;;;5032368;28;20195;-85
2024/01/05 07:56:36;;;;;;;8.02;3.70;;;4.10;70.30;;;;;;5033806;28;20199;-83
2024/01/05 07:59:04;;;;;;;6.20;3.80;;;4.10;70.30;;;;;;5033904;28;20270;-84
2024/01/05 08:01:31;;;;;;;6.88;3.55;;;4.20;70.20;;;;;;5033470;28;20900;-84
2024/01/05 08:03:59;;;;;;;6.55;3.70;;;4.20;70.10;;;;;;5019514;28;20257;-84
2024/01/05 08:06:27;;;;;;;7.47;3.70;;;4.30;70.00;;;;;;5032278;28;20188;-85
2024/01/05 08:08:54;;;;;;;3.90;2.25;;;4.40;70.70;;;;;;5033179;28;20202;-84
2024/01/05 08:11:22;;;;;;;7.88;3.58;;;4.40;69.70;;;;;;5032608;28;20288;-84
2024/01/05 08:13:50;;;;;;;4.65;2.95;;;4.50;69.80;;;;;;5032867;28;20191;-85
2024/01/05 08:16:17;;;;;;;8.40;3.47;;;4.50;69.90;;;;;;5033153;28;20195;-84
2024/01/05 08:18:44;;;;;;;6.88;4.07;;;4.50;70.10;;;;;;5032815;28;20192;-85
2024/01/05 08:21:12;;;;;;;7.18;3.58;;;4.50;70.20;;;;;;5032529;28;20192;-84
2024/01/05 08:23:40;;;;;;;5.00;3.30;;;4.60;70.20;;;;;;5033228;28;20192;-85
2024/01/05 08:26:08;;;;;;;6.32;3.95;;;4.60;69.90;;;;;;5033016;28;20191;-84
2024/01/05 08:28:35;;;;;;;7.38;3.75;;;4.60;69.40;;;;;;5032995;28;20206;-82
2024/01/05 08:31:02;;;;;;;6.82;4.68;;;4.70;69.20;;;;;;5016466;28;20239;-82
2024/01/05 08:33:30;;;;;;;7.18;3.78;;;4.70;69.50;;;;;;5021823;28;20660;-83
2024/01/05 08:35:57;;;;;;;7.90;4.32;;;4.70;69.20;;;;;;5032437;28;20195;-82
2024/01/05 08:38:24;;;;;;;6.88;3.88;;;4.70;69.20;;;;;;5032637;28;20278;-85
2024/01/05 08:40:53;;;;;;;8.40;4.13;;;4.70;69.40;;;;;;5032221;28;20230;-84
2024/01/05 08:43:21;;;;;;;6.38;3.97;;;4.80;69.80;;;;;;5032460;28;20191;-85
2024/01/05 08:45:48;;;;;;;12.20;4.57;;;4.80;69.40;;;;;;5032802;28;20195;-84
2024/01/05 08:48:15;;;;;;;4.93;3.63;;;4.80;69.50;;;;;;5032887;28;20237;-85
2024/01/05 08:50:43;;;;;;;8.55;3.80;;;4.80;69.50;;;;;;5032693;28;20192;-86
2024/01/05 08:53:14;;;;;;;4.72;3.28;;;4.80;69.60;;;;;;5032315;28;20223;-86
2024/01/05 08:55:41;;;;;;;10.68;4.07;;;4.90;69.70;;;;;;5032852;28;20179;-85
2024/01/05 08:58:11;;;;;;;5.68;3.22;;;4.90;69.40;;;;;;5032360;28;20237;-84
2024/01/05 09:00:39;;;;;;;4.90;3.25;;;4.90;69.40;;;;;;5032749;28;20301;-83
2024/01/05 09:03:07;;;;;;;10.32;4.57;;;5.00;69.20;;;;;;5032459;28;20196;-83
2024/01/05 09:05:34;;;;;;;5.25;2.90;;;5.10;68.80;;;;;;5032040;28;20238;-83
2024/01/05 09:08:01;;;;;;;5.38;4.15;;;5.10;68.60;;;;;;5032097;28;20207;-84
2024/01/05 09:10:32;;;;;;;11.88;5.70;;;5.20;68.40;;;;;;5032666;28;20215;-84
2024/01/05 09:12:59;;;;;;;4.97;3.53;;;5.20;68.40;;;;;;5032262;28;20210;-84
2024/01/05 09:15:29;;;;;;;10.55;5.65;;;5.30;68.30;;;;;;5032100;28;20195;-84
2024/01/05 09:17:56;;;;;;;7.70;3.85;;;5.30;68.30;;;;;;5029227;28;20202;-79
2024/01/05 09:20:23;;;;;;;12.18;5.95;;;5.30;68.00;;;;;;5031452;28;20251;-80
2024/01/05 09:22:51;;;;;;;7.05;4.13;;;5.40;68.40;;;;;;5031731;28;20221;-80
2024/01/05 09:25:18;;;;;;;8.70;4.72;;;5.40;68.20;;;;;;5031777;28;20222;-82
2024/01/05 09:27:45;;;;;;;8.77;5.15;;;5.50;68.90;;;;;;5031603;28;20638;-82
2024/01/05 09:30:12;;;;;;;7.28;4.78;;;5.60;69.20;;;;;;5032032;28;20196;-83
2024/01/05 09:32:41;;;;;;;26.60;9.45;;;5.70;69.20;;;;;;5031614;28;20223;-83
2024/01/05 09:35:11;;;;;;;8.25;4.70;;;5.80;69.00;;;;;;5011900;28;20189;-83
2024/01/05 09:37:38;;;;;;;5.68;3.30;;;5.90;68.70;;;;;;5029786;28;20571;-82
2024/01/05 09:40:06;;;;;;;8.40;4.10;;;6.00;68.90;;;;;;5031214;28;20188;-82
2024/01/05 09:42:33;;;;;;;6.68;3.50;;;6.10;68.80;;;;;;5031202;28;20191;-84
2024/01/05 09:45:03;;;;;;;3.58;2.50;;;6.20;68.20;;;;;;5031390;28;20180;-90
2024/01/05 09:47:30;;;;;;;5.40;2.42;;;6.20;67.80;;;;;;5030630;28;20219;-88
2024/01/05 09:50:00;;;;;;;5.80;2.85;;;6.30;67.70;;;;;;5031394;28;20187;-89
2024/01/05 09:52:27;;;;;;;5.53;3.78;;;6.30;67.40;;;;;;5031625;28;20212;-89
2024/01/05 09:54:56;;;;;;;7.70;4.20;;;6.30;67.00;;;;;;5031387;28;20202;-89
2024/01/05 09:57:24;;;;;;;6.45;4.10;;;6.40;67.10;;;;;;5031579;28;20638;-87
2024/01/05 09:59:52;;;;;;;5.97;3.88;;;6.30;67.30;;;;;;5031619;28;20218;-89
2024/01/05 10:02:27;;;;;;;7.53;4.30;;;6.30;67.90;;;;;;5032117;28;20206;-88
2024/01/05 10:04:55;;;;;;;8.68;3.70;;;6.30;68.30;;;;;;5031793;28;20270;-87
2024/01/05 10:07:24;;;;;;;6.53;4.28;;;6.30;68.10;;;;;;5031687;28;20231;-88
2024/01/05 10:09:52;;;;;;;9.55;3.95;;;6.30;67.30;;;;;;5020442;28;20196;-87
2024/01/05 10:12:20;;;;;;;5.63;3.60;;;6.40;67.00;;;;;;5010615;28;20216;-88
2024/01/05 10:14:48;;;;;;;7.65;4.00;;;6.40;66.60;;;;;;5025247;28;20188;-88
2024/01/05 10:17:15;;;;;;;6.32;3.65;;;6.40;66.10;;;;;;5033316;28;20227;-85
2024/01/05 10:19:43;;;;;;;7.35;4.20;;;6.40;66.00;;;;;;5034332;28;20192;-84
2024/01/05 10:22:11;;;;;;;6.35;4.28;;;6.50;66.60;;;;;;5035405;28;20290;-86
2024/01/05 10:24:41;;;;;;;5.63;3.75;;;6.50;67.60;;;;;;5035651;28;20210;-87
2024/01/05 10:27:09;;;;;;;9.45;5.03;;;6.50;66.40;;;;;;5035296;28;20195;-89
2024/01/05 10:29:38;;;;;;;12.98;7.90;;;6.50;66.80;;;;;;5034723;28;20554;-89
2024/01/05 10:32:13;;;;;;;16.42;9.65;;;6.40;66.20;;;;;;5034888;28;20273;-82
2024/01/05 10:34:41;;;;;;;14.13;8.60;;;6.50;66.90;;;;;;5035107;28;20201;-81
2024/01/05 10:37:10;;;;;;;14.70;9.95;;;6.60;66.90;;;;;;5034627;28;20183;-84
2024/01/05 10:39:39;;;;;;;12.13;8.95;;;6.60;66.70;;;;;;5027199;28;20183;-81
2024/01/05 10:42:19;;;;;;;15.00;9.77;;;6.60;66.60;;;;;;5035231;28;20188;-83
2024/01/05 10:44:47;;;;;;;16.10;10.98;;;6.60;66.70;;;;;;5034829;28;20775;-81
2024/01/05 10:47:15;;;;;;;15.32;10.07;;;6.70;67.50;;;;;;5034982;28;20235;-85
2024/01/05 10:49:46;;;;;;;14.65;9.32;;;6.80;67.50;;;;;;5035280;28;20274;-83
2024/01/05 10:52:14;;;;;;;13.05;9.38;;;6.80;67.50;;;;;;5035226;28;20207;-85
2024/01/05 10:54:46;;;;;;;16.00;11.35;;;6.90;67.70;;;;;;5034720;28;20199;-89
2024/01/05 10:57:14;;;;;;;13.32;8.00;;;6.90;67.10;;;;;;5034842;28;20698;-88
2024/01/05 10:59:44;;;;;;;27.63;15.52;;;6.90;66.60;;;;;;5035036;28;20617;-86
2024/01/05 11:02:21;;;;;;;30.25;17.13;;;6.90;65.70;;;;;;5035011;28;20874;-81
2024/01/05 11:04:53;;;;;;;31.58;17.35;;;7.00;65.60;;;;;;5034806;28;20191;-82
2024/01/05 11:07:22;;;;;;;19.40;11.70;;;7.00;65.30;;;;;;5035043;28;20188;-78
2024/01/05 11:09:57;;;;;;;16.00;9.98;;;7.10;65.60;;;;;;5034590;28;20591;-80
2024/01/05 11:12:41;;;;;;;13.75;9.27;;;7.30;66.00;;;;;;5034322;28;20207;-80
2024/01/05 11:15:26;;;;;;;16.13;10.25;;;7.40;65.90;;;;;;5034500;28;20517;-81
2024/01/05 11:18:13;;;;;;;22.27;12.00;;;7.50;64.80;;;;;;5034819;28;20207;-80
2024/01/05 11:20:57;;;;;;;15.60;8.10;;;7.70;65.20;;;;;;5034238;28;20213;-81
2024/01/05 11:23:26;;;;;;;11.52;6.13;;;7.70;66.20;;;;;;5034683;28;20361;-82
2024/01/05 11:25:55;;;;;;;9.55;6.40;;;7.80;65.80;;;;;;5034261;28;20196;-82
2024/01/05 11:28:38;;;;;;;12.77;7.95;;;7.80;65.10;;;;;;5034054;28;20283;-82
2024/01/05 11:31:06;;;;;;;11.52;7.25;;;7.90;65.60;;;;;;5032264;28;20803;-81
2024/01/05 11:33:47;;;;;;;8.07;6.28;;;7.90;66.30;;;;;;5034031;28;20527;-80
2024/01/05 11:36:38;;;;;;;11.48;6.10;;;8.00;66.20;;;;;;5034368;28;20219;-80
2024/01/05 11:39:06;;;;;;;9.95;6.20;;;8.10;65.40;;;;;;5030881;28;20441;-85
2024/01/05 11:41:38;;;;;;;7.95;6.40;;;8.10;65.10;;;;;;5033418;28;20500;-85
2024/01/05 11:44:05;;;;;;;7.25;5.05;;;8.20;65.40;;;;;;5032992;28;20188;-83
2024/01/05 11:46:50;;;;;;;6.40;4.80;;;8.30;65.30;;;;;;5032307;28;20247;-84
2024/01/05 11:49:36;;;;;;;7.50;4.97;;;8.30;64.90;;;;;;5033598;28;20187;-84
2024/01/05 11:52:03;;;;;;;48.63;22.02;;;8.30;63.70;;;;;;5031518;28;20614;-84
2024/01/05 11:54:30;;;;;;;16.65;11.70;;;8.30;62.50;;;;;;5032847;28;20756;-84
2024/01/05 11:56:59;;;;;;;13.63;9.55;;;8.30;63.40;;;;;;5033765;28;20231;-84
2024/01/05 11:59:26;;;;;;;15.00;10.68;;;8.30;63.90;;;;;;5033192;28;20287;-84
2024/01/05 12:01:54;;;;;;;14.07;9.00;;;8.30;63.90;;;;;;5033753;28;20579;-84
2024/01/05 12:04:21;;;;;;;15.38;10.30;;;8.20;64.20;;;;;;5033677;28;20203;-84
2024/01/05 12:06:51;;;;;;;16.52;10.40;;;8.20;64.80;;;;;;5033201;28;20195;-84
2024/01/05 12:09:19;;;;;;;17.75;11.77;;;8.20;65.20;;;;;;5033341;28;20282;-84
2024/01/05 12:11:46;;;;;;;15.70;12.15;;;8.20;65.20;;;;;;5033679;28;20226;-84
2024/01/05 12:14:26;;;;;;;19.67;11.57;;;8.10;65.40;;;;;;5033747;28;20219;-84
2024/01/05 12:16:53;;;;;;;16.10;10.93;;;8.10;65.60;;;;;;5033679;28;20183;-84
2024/01/05 12:19:21;;;;;;;14.55;11.07;;;8.10;65.90;;;;;;5032812;28;20661;-84
2024/01/05 12:21:51;;;;;;;16.23;11.30;;;8.10;66.60;;;;;;5033214;28;20202;-84
2024/01/05 12:24:18;;;;;;;20.13;11.68;;;8.10;66.60;;;;;;5033742;28;20195;-84
2024/01/05 12:26:45;;;;;;;13.80;11.10;;;8.10;66.60;;;;;;5033665;28;20242;-84
2024/01/05 12:29:13;;;;;;;16.55;10.23;;;8.10;66.90;;;;;;5033181;28;20198;-84
2024/01/05 12:31:41;;;;;;;17.00;11.07;;;8.10;68.30;;;;;;5033670;28;20187;-84
2024/01/05 12:34:09;;;;;;;17.17;10.25;;;8.10;67.20;;;;;;5033174;28;20218;-84
2024/01/05 12:36:36;;;;;;;12.38;7.13;;;8.20;67.40;;;;;;5033628;28;20219;-84
2024/01/05 12:39:10;;;;;;;12.27;7.78;;;8.20;68.00;;;;;;5032860;28;20279;-83
2024/01/05 12:41:39;;;;;;;10.85;7.25;;;8.30;68.60;;;;;;5031782;28;20194;-84
2024/01/05 12:44:09;;;;;;;7.28;5.35;;;8.30;68.80;;;;;;5032555;28;20204;-84
2024/01/05 12:46:45;;;;;;;11.50;5.65;;;8.40;69.10;;;;;;5032645;28;20228;-83
2024/01/05 12:49:22;;;;;;;15.63;6.53;;;8.40;69.30;;;;;;5033420;28;20215;-84
2024/01/05 12:51:50;;;;;;;11.65;5.88;;;8.40;69.40;;;;;;5033781;28;20203;-83
2024/01/05 12:54:20;;;;;;;8.90;6.57;;;8.40;69.20;;;;;;5033050;28;20310;-84
2024/01/05 12:56:48;;;;;;;8.52;6.10;;;8.40;68.60;;;;;;5033255;28;20187;-84
2024/01/05 12:59:25;;;;;;;9.65;5.15;;;8.40;68.50;;;;;;5032800;28;20593;-84
2024/01/05 13:02:00;;;;;;;16.80;8.63;;;8.30;67.50;;;;;;5032933;28;20258;-84
2024/01/05 13:04:30;;;;;;;10.00;5.80;;;8.30;66.90;;;;;;5032756;28;20289;-84